WetterOnline ( https://www.wetteronline.de )

Wetter aktuell Hagen

Aktuelles Wetter: Lüdenscheid (392m)

6-stündlich | Neueste Meldungen
Ortszeit Temperatur Wetter
So, 05.07. 20:00 19.7° C wolkig
So, 05.07. 14:00 19.9° C Regen
So, 05.07. 8:00 16.8° C bedeckt
So, 05.07. 2:00 15.9° C Sprühregen
Sa, 04.07. 20:00 19.0° C bewölkt
Sa, 04.07. 14:00 20.4° C bewölkt
Sa, 04.07. 8:00 13.8° C bedeckt
Sa, 04.07. 2:00 13.6° C bedeckt
Ortszeit Temperatur Wetter
So, 05.07. 22:30 18.0° C leicht bewölkt
So, 05.07. 22:10 18.0° C leicht bewölkt
So, 05.07. 22:00 18.3° C fast wolkenlos
So, 05.07. 21:50 18.3° C wolkenlos
So, 05.07. 21:40 18.3° C wolkenlos
So, 05.07. 21:30 18.4° C leicht bewölkt
So, 05.07. 21:00 19.0° C leicht bewölkt
So, 05.07. 19:00 18.6° C leichter Regen
Ortszeit Relative Feuchte Sichtweite
So, 05.07. 20:00 75% 70 km
So, 05.07. 14:00 72% 35 km
So, 05.07. 8:00 91% 55 km
So, 05.07. 2:00 96% 3.5 km
Sa, 04.07. 20:00 70% >70 km
Sa, 04.07. 14:00 56% 55 km
Sa, 04.07. 8:00 74% 60 km
Sa, 04.07. 2:00 78% 50 km
Ortszeit Relative Feuchte Sichtweite
So, 05.07. 22:30 71% 65 km
So, 05.07. 22:10 72% -
So, 05.07. 22:00 72% >70 km
So, 05.07. 21:50 72% -
So, 05.07. 21:40 72% -
So, 05.07. 21:30 75% >70 km
So, 05.07. 21:00 73% >70 km
So, 05.07. 19:00 81% 20 km
Ortszeit Niederschlagsmenge Niederschlagsart
So, 05.07. 20:00 0.2 l/m2 in 12 Std. Regen
So, 05.07. 14:00 0.1 l/m2 in 6 Std. Regen
So, 05.07. 8:00 4 l/m2 in 12 Std. Regen
So, 05.07. 2:00 3 l/m2 in 6 Std. Regen
Sa, 04.07. 20:00 0.1 l/m2 in 12 Std. Regen
Sa, 04.07. 14:00 0.0 l/m2 in 6 Std. -
Sa, 04.07. 8:00 0.0 l/m2 in 12 Std. -
Sa, 04.07. 2:00 0.0 l/m2 in 6 Std. -
Ortszeit Niederschlagsmenge Niederschlagsart
So, 05.07. 22:30 0.0 l/m2 in 1 Std. -
So, 05.07. 22:10 keine Meldung -
So, 05.07. 22:00 0.0 l/m2 in 1 Std. -
So, 05.07. 21:50 keine Meldung -
So, 05.07. 21:40 keine Meldung -
So, 05.07. 21:30 0.0 l/m2 in 1 Std. -
So, 05.07. 21:00 0.1 l/m2 in 1 Std. -
So, 05.07. 19:00 keine Meldung -
Ortszeit Stärke Spitze Richtung
km/h Bft. km/h Grad Sektor
So, 05.07. 20:00 24 4 50 250° W
So, 05.07. 14:00 22 4 54 240° SW
So, 05.07. 8:00 24 4 41 240° SW
So, 05.07. 2:00 15 3 44 230° SW
Sa, 04.07. 20:00 13 3 46 240° SW
Sa, 04.07. 14:00 18 3 54 240° SW
Sa, 04.07. 8:00 17 3 30 230° SW
Sa, 04.07. 2:00 15 3 26 240° SW
Ortszeit Stärke Spitze Richtung
km/h Bft. km/h Grad Sektor
So, 05.07. 22:30 22 4 36 260° W
So, 05.07. 22:10 22 4 - 270° W
So, 05.07. 22:00 19 3 33 250° W
So, 05.07. 21:50 19 3 - 250° W
So, 05.07. 21:40 22 4 - 250° W
So, 05.07. 21:30 18 3 32 260° W
So, 05.07. 21:00 25 4 47 250° W
So, 05.07. 19:00 25 4 47 260° W
Ortszeit Untergrenze Bedeckung Gattung
total tief tief mittel hoch
So, 05.07. 20:00 630 m 5/8 5/8 - - -
So, 05.07. 14:00 660 m 7/8 7/8 - - -
So, 05.07. 8:00 270 m 8/8 8/8 - - -
So, 05.07. 2:00 150 m 7/8 8/8 - - -
Sa, 04.07. 20:00 930 m 7/8 7/8 - - -
Sa, 04.07. 14:00 1500 m 8/8 6/8 - - -
Sa, 04.07. 8:00 3000 m 8/8 8/8 - - -
Sa, 04.07. 2:00 5700 m 8/8 8/8 - - -
Ortszeit Bedeckungsgrad in Achtel und Wolkenuntergrenze
So, 05.07. 22:30 2(930m) 3(1140m)
So, 05.07. 22:10 1(840m) 2(1050m)
So, 05.07. 22:00 1(870m) 2(1080m)
So, 05.07. 21:50 keine Wolken
So, 05.07. 21:40 keine Wolken
So, 05.07. 21:30 1(750m) 3(990m)
So, 05.07. 21:00 2(810m) 4(1020m) 5(1230m)
So, 05.07. 19:00 6(600m) 7(780m) 7(1110m)
Ortszeit Luftdruck NN (hPa) Tendenz (hPa in 3 Std.)
So, 05.07. 20:00 1011 - 0,9
So, 05.07. 14:00 1011 - 0,5
So, 05.07. 8:00 1012 - 0,2
So, 05.07. 2:00 1014 - 0,9
Sa, 04.07. 20:00 1014 - 0,5
Sa, 04.07. 14:00 1015 - 0,6
Sa, 04.07. 8:00 1017 - 0,5
Sa, 04.07. 2:00 1018 + 0,1
Ortszeit Luftdruck NN (hPa) Tendenz (hPa in 3 Std.)
So, 05.07. 22:30 1011 - 0,2
So, 05.07. 22:10 1011 keine Meldung
So, 05.07. 22:00 1011 - 0,5
So, 05.07. 21:50 1011 keine Meldung
So, 05.07. 21:40 1011 keine Meldung
So, 05.07. 21:30 1011 - 0,4
So, 05.07. 21:00 1011 - 0,8
So, 05.07. 19:00 1011 - 0,5
Ortszeit Schneehöhe (cm)
So, 05.07. 20:00 -
So, 05.07. 14:00 -
So, 05.07. 8:00 -
So, 05.07. 2:00 -
Sa, 04.07. 20:00 -
Sa, 04.07. 14:00 -
Sa, 04.07. 8:00 -
Sa, 04.07. 2:00 -
Ortszeit Schneehöhe (cm)
So, 05.07. 22:30 -
So, 05.07. 22:10 -
So, 05.07. 22:00 -
So, 05.07. 21:50 -
So, 05.07. 21:40 -
So, 05.07. 21:30 -
So, 05.07. 21:00 -
So, 05.07. 19:00 -
Link zu dieser Seite / Seite empfehlen

Das Wetter in ...